Weather at Son Bonet Airport

Public forecast

Using degrees Celsius for public forecast. Weather courtesy of forecast.io.

Closest aviation weather report (METAR) to Son Bonet Airport

Closest report is Palma De Mallorca Airport, 3.3 nm (6.1 km) SSE. Retrieved 2020/10/21 06:30 UTC (28 minutes ago):

LEPA 210630Z 17010KT 140V220 9999 FEW020 23/13 Q1011 NOSIG

Closest aviation forecast (TAF) to Son Bonet Airport

Closest forecast is Palma De Mallorca Airport, 3.3 nm (6.1 km) SSE. Retrieved 2020/10/21 06:27 UTC (31 minutes ago):

TAF TAF LEPA 210500Z 2106/2206 18008KT 9999 FEW025 TX26/2112Z TN16/2106Z TEMPO 2106/2110 18012G22KT BECMG 2110/2112 22010KT BECMG 2118/2120 VRB04KT